Terminal Aerodrome Forecast
Issued by NWS Corpus Christi, TX

Home | Current Version | Previous Version | Text Only | Print | Product List | Glossary On
Versions: 1 2 3 4 5 6 7 8 9 10 11 12 13 14
000
FTUS44 KCRP 290500
TAFVCT
TAF
KVCT 290524Z 2906/3006 12011KT P6SM FEW015 BKN120
     FM290800 10007KT P6SM SCT025 BKN120
      TEMPO 2908/2912 BKN025
     FM291200 12006KT P6SM VCSH BKN025 BKN120
      TEMPO 2914/2918 5SM TSRA BKN018CB
     FM291800 13010KT P6SM VCTS BKN035CB BKN100
      TEMPO 2918/2922 5SM TSRA BKN025CB
     FM300200 13008KT P6SM BKN050=

USA.gov is the U.S. government's official web portal to all federal, state and local government web resources and services.